sensor_id;sensor_type;location;lat;lon;timestamp;P1;durP1;ratioP1;P2;durP2;ratioP2
7485;SDS011;3784;54.098;9.998;2022-08-21T00:01:38;7.67;;;4.33;;
7485;SDS011;3784;54.098;9.998;2022-08-21T00:04:06;4.73;;;3.63;;
7485;SDS011;3784;54.098;9.998;2022-08-21T00:06:33;9.53;;;4.60;;
7485;SDS011;3784;54.098;9.998;2022-08-21T00:09:01;8.30;;;4.33;;
7485;SDS011;3784;54.098;9.998;2022-08-21T00:11:32;5.90;;;4.17;;
7485;SDS011;3784;54.098;9.998;2022-08-21T00:14:02;7.30;;;4.13;;
7485;SDS011;3784;54.098;9.998;2022-08-21T00:16:30;6.47;;;4.07;;
7485;SDS011;3784;54.098;9.998;2022-08-21T00:18:56;7.40;;;3.80;;
7485;SDS011;3784;54.098;9.998;2022-08-21T00:21:23;6.93;;;4.27;;
7485;SDS011;3784;54.098;9.998;2022-08-21T00:23:51;4.90;;;3.90;;
7485;SDS011;3784;54.098;9.998;2022-08-21T00:26:18;6.00;;;3.80;;
7485;SDS011;3784;54.098;9.998;2022-08-21T00:28:44;5.53;;;3.70;;
7485;SDS011;3784;54.098;9.998;2022-08-21T00:31:12;5.70;;;3.90;;
7485;SDS011;3784;54.098;9.998;2022-08-21T00:33:38;7.10;;;3.80;;
7485;SDS011;3784;54.098;9.998;2022-08-21T00:36:05;3.93;;;3.47;;
7485;SDS011;3784;54.098;9.998;2022-08-21T00:38:32;7.20;;;4.07;;
7485;SDS011;3784;54.098;9.998;2022-08-21T00:41:00;5.60;;;3.70;;
7485;SDS011;3784;54.098;9.998;2022-08-21T00:43:48;4.53;;;3.40;;
7485;SDS011;3784;54.098;9.998;2022-08-21T00:46:16;5.77;;;3.83;;
7485;SDS011;3784;54.098;9.998;2022-08-21T00:48:42;6.33;;;4.60;;
7485;SDS011;3784;54.098;9.998;2022-08-21T00:51:13;5.30;;;4.10;;
7485;SDS011;3784;54.098;9.998;2022-08-21T00:53:49;6.67;;;4.40;;
7485;SDS011;3784;54.098;9.998;2022-08-21T00:56:19;6.17;;;4.37;;
7485;SDS011;3784;54.098;9.998;2022-08-21T00:58:47;7.87;;;5.10;;
7485;SDS011;3784;54.098;9.998;2022-08-21T01:01:20;8.93;;;7.00;;
7485;SDS011;3784;54.098;9.998;2022-08-21T01:03:47;12.90;;;8.80;;
7485;SDS011;3784;54.098;9.998;2022-08-21T01:06:15;12.83;;;8.67;;
7485;SDS011;3784;54.098;9.998;2022-08-21T01:08:42;12.37;;;8.63;;
7485;SDS011;3784;54.098;9.998;2022-08-21T01:11:12;11.43;;;8.87;;
7485;SDS011;3784;54.098;9.998;2022-08-21T01:13:40;12.20;;;8.63;;
7485;SDS011;3784;54.098;9.998;2022-08-21T01:16:11;9.93;;;7.23;;
7485;SDS011;3784;54.098;9.998;2022-08-21T01:18:38;8.43;;;6.70;;
7485;SDS011;3784;54.098;9.998;2022-08-21T01:21:09;10.90;;;6.10;;
7485;SDS011;3784;54.098;9.998;2022-08-21T01:23:42;8.13;;;6.20;;
7485;SDS011;3784;54.098;9.998;2022-08-21T01:26:12;11.30;;;5.80;;
7485;SDS011;3784;54.098;9.998;2022-08-21T01:28:54;8.07;;;4.90;;
7485;SDS011;3784;54.098;9.998;2022-08-21T01:31:24;7.10;;;4.80;;
7485;SDS011;3784;54.098;9.998;2022-08-21T01:33:51;8.50;;;5.27;;
7485;SDS011;3784;54.098;9.998;2022-08-21T01:36:18;7.07;;;4.23;;
7485;SDS011;3784;54.098;9.998;2022-08-21T01:38:45;6.83;;;4.23;;
7485;SDS011;3784;54.098;9.998;2022-08-21T01:41:13;7.90;;;4.43;;
7485;SDS011;3784;54.098;9.998;2022-08-21T01:43:41;7.87;;;4.27;;
7485;SDS011;3784;54.098;9.998;2022-08-21T01:46:09;10.37;;;4.83;;
7485;SDS011;3784;54.098;9.998;2022-08-21T01:48:36;9.40;;;4.70;;
7485;SDS011;3784;54.098;9.998;2022-08-21T01:51:03;7.33;;;4.60;;
7485;SDS011;3784;54.098;9.998;2022-08-21T01:53:30;8.30;;;5.00;;
7485;SDS011;3784;54.098;9.998;2022-08-21T01:55:59;11.23;;;5.60;;
7485;SDS011;3784;54.098;9.998;2022-08-21T01:58:26;9.43;;;6.03;;
7485;SDS011;3784;54.098;9.998;2022-08-21T02:00:52;9.93;;;5.47;;
7485;SDS011;3784;54.098;9.998;2022-08-21T02:03:19;10.53;;;6.10;;
7485;SDS011;3784;54.098;9.998;2022-08-21T02:06:02;11.63;;;6.60;;
7485;SDS011;3784;54.098;9.998;2022-08-21T02:08:30;10.13;;;7.30;;
7485;SDS011;3784;54.098;9.998;2022-08-21T02:10:57;11.43;;;7.17;;
7485;SDS011;3784;54.098;9.998;2022-08-21T02:13:23;11.80;;;7.23;;
7485;SDS011;3784;54.098;9.998;2022-08-21T02:15:50;10.70;;;6.60;;
7485;SDS011;3784;54.098;9.998;2022-08-21T02:18:17;11.97;;;7.73;;
7485;SDS011;3784;54.098;9.998;2022-08-21T02:20:45;8.87;;;6.00;;
7485;SDS011;3784;54.098;9.998;2022-08-21T02:23:13;11.80;;;5.03;;
7485;SDS011;3784;54.098;9.998;2022-08-21T02:25:40;10.17;;;4.97;;
7485;SDS011;3784;54.098;9.998;2022-08-21T02:28:09;5.33;;;4.43;;
7485;SDS011;3784;54.098;9.998;2022-08-21T02:30:38;9.87;;;5.03;;
7485;SDS011;3784;54.098;9.998;2022-08-21T02:33:06;8.60;;;4.73;;
7485;SDS011;3784;54.098;9.998;2022-08-21T02:35:34;7.77;;;4.57;;
7485;SDS011;3784;54.098;9.998;2022-08-21T02:38:02;6.33;;;4.20;;
7485;SDS011;3784;54.098;9.998;2022-08-21T02:40:31;8.33;;;4.70;;
7485;SDS011;3784;54.098;9.998;2022-08-21T02:43:00;5.97;;;4.30;;
7485;SDS011;3784;54.098;9.998;2022-08-21T02:45:27;6.93;;;4.53;;
7485;SDS011;3784;54.098;9.998;2022-08-21T02:47:59;8.20;;;4.80;;
7485;SDS011;3784;54.098;9.998;2022-08-21T02:50:36;6.17;;;4.47;;
7485;SDS011;3784;54.098;9.998;2022-08-21T02:53:06;5.67;;;4.33;;
7485;SDS011;3784;54.098;9.998;2022-08-21T02:55:34;6.87;;;4.60;;
7485;SDS011;3784;54.098;9.998;2022-08-21T02:58:02;6.73;;;4.47;;
7485;SDS011;3784;54.098;9.998;2022-08-21T03:00:33;6.23;;;3.80;;
7485;SDS011;3784;54.098;9.998;2022-08-21T03:03:01;6.73;;;4.27;;
7485;SDS011;3784;54.098;9.998;2022-08-21T03:05:28;6.23;;;3.83;;
7485;SDS011;3784;54.098;9.998;2022-08-21T03:08:01;6.87;;;4.27;;
7485;SDS011;3784;54.098;9.998;2022-08-21T03:10:29;5.63;;;3.90;;
7485;SDS011;3784;54.098;9.998;2022-08-21T03:12:57;7.70;;;4.60;;
7485;SDS011;3784;54.098;9.998;2022-08-21T03:15:24;5.43;;;4.40;;
7485;SDS011;3784;54.098;9.998;2022-08-21T03:17:51;6.50;;;4.33;;
7485;SDS011;3784;54.098;9.998;2022-08-21T03:20:18;5.73;;;3.90;;
7485;SDS011;3784;54.098;9.998;2022-08-21T03:22:46;5.90;;;3.97;;
7485;SDS011;3784;54.098;9.998;2022-08-21T03:25:18;6.00;;;3.93;;
7485;SDS011;3784;54.098;9.998;2022-08-21T03:27:48;4.77;;;4.00;;
7485;SDS011;3784;54.098;9.998;2022-08-21T03:30:19;5.80;;;4.00;;
7485;SDS011;3784;54.098;9.998;2022-08-21T03:32:47;5.53;;;3.90;;
7485;SDS011;3784;54.098;9.998;2022-08-21T03:35:13;6.70;;;4.30;;
7485;SDS011;3784;54.098;9.998;2022-08-21T03:37:40;5.37;;;4.10;;
7485;SDS011;3784;54.098;9.998;2022-08-21T03:40:08;4.73;;;3.70;;
7485;SDS011;3784;54.098;9.998;2022-08-21T03:42:40;6.80;;;4.10;;
7485;SDS011;3784;54.098;9.998;2022-08-21T03:45:08;6.13;;;3.60;;
7485;SDS011;3784;54.098;9.998;2022-08-21T03:47:35;5.23;;;3.93;;
7485;SDS011;3784;54.098;9.998;2022-08-21T03:50:05;7.40;;;4.07;;
7485;SDS011;3784;54.098;9.998;2022-08-21T03:52:32;5.83;;;3.87;;
7485;SDS011;3784;54.098;9.998;2022-08-21T03:54:58;5.37;;;3.97;;
7485;SDS011;3784;54.098;9.998;2022-08-21T03:57:25;5.03;;;4.10;;
7485;SDS011;3784;54.098;9.998;2022-08-21T03:59:51;3.93;;;3.23;;
7485;SDS011;3784;54.098;9.998;2022-08-21T04:02:18;8.17;;;3.90;;
7485;SDS011;3784;54.098;9.998;2022-08-21T04:04:46;4.97;;;3.50;;
7485;SDS011;3784;54.098;9.998;2022-08-21T04:07:12;4.07;;;3.60;;
7485;SDS011;3784;54.098;9.998;2022-08-21T04:09:39;4.57;;;3.50;;
7485;SDS011;3784;54.098;9.998;2022-08-21T04:12:06;6.17;;;3.53;;
7485;SDS011;3784;54.098;9.998;2022-08-21T04:14:33;5.23;;;3.40;;
7485;SDS011;3784;54.098;9.998;2022-08-21T04:16:59;5.30;;;3.57;;
7485;SDS011;3784;54.098;9.998;2022-08-21T04:19:26;5.27;;;3.70;;
7485;SDS011;3784;54.098;9.998;2022-08-21T04:21:52;7.07;;;4.23;;
7485;SDS011;3784;54.098;9.998;2022-08-21T04:24:20;5.10;;;3.53;;
7485;SDS011;3784;54.098;9.998;2022-08-21T04:26:46;8.07;;;4.03;;
7485;SDS011;3784;54.098;9.998;2022-08-21T04:29:13;5.17;;;3.83;;
7485;SDS011;3784;54.098;9.998;2022-08-21T04:31:39;5.93;;;3.47;;
7485;SDS011;3784;54.098;9.998;2022-08-21T04:34:06;5.23;;;3.30;;
7485;SDS011;3784;54.098;9.998;2022-08-21T04:36:32;4.87;;;3.23;;
7485;SDS011;3784;54.098;9.998;2022-08-21T04:38:59;5.70;;;3.37;;
7485;SDS011;3784;54.098;9.998;2022-08-21T04:41:28;5.30;;;3.30;;
7485;SDS011;3784;54.098;9.998;2022-08-21T04:43:55;4.07;;;3.40;;
7485;SDS011;3784;54.098;9.998;2022-08-21T04:46:22;3.63;;;3.07;;
7485;SDS011;3784;54.098;9.998;2022-08-21T04:48:48;3.67;;;3.27;;
7485;SDS011;3784;54.098;9.998;2022-08-21T04:51:16;6.60;;;3.63;;
7485;SDS011;3784;54.098;9.998;2022-08-21T04:53:59;3.97;;;3.10;;
7485;SDS011;3784;54.098;9.998;2022-08-21T04:56:33;6.00;;;3.50;;
7485;SDS011;3784;54.098;9.998;2022-08-21T04:59:06;4.23;;;3.10;;
7485;SDS011;3784;54.098;9.998;2022-08-21T05:01:39;4.03;;;3.23;;
7485;SDS011;3784;54.098;9.998;2022-08-21T05:04:07;4.53;;;3.40;;
7485;SDS011;3784;54.098;9.998;2022-08-21T05:06:36;3.97;;;3.30;;
7485;SDS011;3784;54.098;9.998;2022-08-21T05:09:03;4.13;;;3.30;;
7485;SDS011;3784;54.098;9.998;2022-08-21T05:11:31;4.90;;;3.30;;
7485;SDS011;3784;54.098;9.998;2022-08-21T05:13:58;3.93;;;3.10;;
7485;SDS011;3784;54.098;9.998;2022-08-21T05:16:25;6.07;;;3.20;;
7485;SDS011;3784;54.098;9.998;2022-08-21T05:19:03;7.37;;;3.43;;
7485;SDS011;3784;54.098;9.998;2022-08-21T05:21:31;3.90;;;3.20;;
7485;SDS011;3784;54.098;9.998;2022-08-21T05:23:58;5.40;;;3.47;;
7485;SDS011;3784;54.098;9.998;2022-08-21T05:26:25;6.43;;;3.90;;
7485;SDS011;3784;54.098;9.998;2022-08-21T05:28:52;7.20;;;4.10;;
7485;SDS011;3784;54.098;9.998;2022-08-21T05:31:18;8.73;;;4.27;;
7485;SDS011;3784;54.098;9.998;2022-08-21T05:33:45;6.50;;;4.70;;
7485;SDS011;3784;54.098;9.998;2022-08-21T05:36:11;9.17;;;4.73;;
7485;SDS011;3784;54.098;9.998;2022-08-21T05:38:38;10.03;;;4.57;;
7485;SDS011;3784;54.098;9.998;2022-08-21T05:41:04;8.53;;;4.23;;
7485;SDS011;3784;54.098;9.998;2022-08-21T05:43:31;6.53;;;4.30;;
7485;SDS011;3784;54.098;9.998;2022-08-21T05:46:02;8.10;;;4.50;;
7485;SDS011;3784;54.098;9.998;2022-08-21T05:48:33;14.07;;;5.07;;
7485;SDS011;3784;54.098;9.998;2022-08-21T05:51:07;8.87;;;4.50;;
7485;SDS011;3784;54.098;9.998;2022-08-21T05:53:39;9.17;;;4.50;;
7485;SDS011;3784;54.098;9.998;2022-08-21T05:56:05;7.90;;;4.70;;
7485;SDS011;3784;54.098;9.998;2022-08-21T05:58:33;9.13;;;5.23;;
7485;SDS011;3784;54.098;9.998;2022-08-21T06:01:00;7.17;;;4.70;;
7485;SDS011;3784;54.098;9.998;2022-08-21T06:03:29;9.20;;;5.33;;
7485;SDS011;3784;54.098;9.998;2022-08-21T06:05:58;9.50;;;4.87;;
7485;SDS011;3784;54.098;9.998;2022-08-21T06:08:25;8.33;;;4.50;;
7485;SDS011;3784;54.098;9.998;2022-08-21T06:10:52;7.70;;;4.40;;
7485;SDS011;3784;54.098;9.998;2022-08-21T06:13:20;8.03;;;4.30;;
7485;SDS011;3784;54.098;9.998;2022-08-21T06:15:48;9.50;;;4.50;;
7485;SDS011;3784;54.098;9.998;2022-08-21T06:18:16;9.07;;;4.20;;
7485;SDS011;3784;54.098;9.998;2022-08-21T06:20:43;8.60;;;4.70;;
7485;SDS011;3784;54.098;9.998;2022-08-21T06:23:09;10.73;;;4.83;;
7485;SDS011;3784;54.098;9.998;2022-08-21T06:25:36;8.93;;;4.90;;
7485;SDS011;3784;54.098;9.998;2022-08-21T06:30:30;10.40;;;4.60;;
7485;SDS011;3784;54.098;9.998;2022-08-21T06:32:57;6.27;;;4.07;;
7485;SDS011;3784;54.098;9.998;2022-08-21T06:35:24;7.20;;;4.17;;
7485;SDS011;3784;54.098;9.998;2022-08-21T06:37:51;7.87;;;4.10;;
7485;SDS011;3784;54.098;9.998;2022-08-21T06:40:18;7.37;;;4.03;;
7485;SDS011;3784;54.098;9.998;2022-08-21T06:42:44;4.03;;;3.20;;
7485;SDS011;3784;54.098;9.998;2022-08-21T06:45:12;7.63;;;3.13;;
7485;SDS011;3784;54.098;9.998;2022-08-21T06:47:39;6.73;;;2.90;;
7485;SDS011;3784;54.098;9.998;2022-08-21T06:50:06;4.43;;;2.70;;
7485;SDS011;3784;54.098;9.998;2022-08-21T06:52:36;7.13;;;2.50;;
7485;SDS011;3784;54.098;9.998;2022-08-21T06:55:07;6.27;;;2.80;;
7485;SDS011;3784;54.098;9.998;2022-08-21T06:57:35;4.73;;;2.07;;
7485;SDS011;3784;54.098;9.998;2022-08-21T07:00:03;8.17;;;2.37;;
7485;SDS011;3784;54.098;9.998;2022-08-21T07:02:31;5.13;;;2.17;;
7485;SDS011;3784;54.098;9.998;2022-08-21T07:04:59;4.87;;;2.20;;
7485;SDS011;3784;54.098;9.998;2022-08-21T07:07:39;5.93;;;2.13;;
7485;SDS011;3784;54.098;9.998;2022-08-21T07:10:05;4.90;;;2.00;;
7485;SDS011;3784;54.098;9.998;2022-08-21T07:12:32;5.03;;;2.07;;
7485;SDS011;3784;54.098;9.998;2022-08-21T07:14:58;4.77;;;2.23;;
7485;SDS011;3784;54.098;9.998;2022-08-21T07:17:25;4.07;;;1.70;;
7485;SDS011;3784;54.098;9.998;2022-08-21T07:19:51;4.07;;;2.20;;
7485;SDS011;3784;54.098;9.998;2022-08-21T07:22:18;4.93;;;2.17;;
7485;SDS011;3784;54.098;9.998;2022-08-21T07:24:46;4.23;;;1.83;;
7485;SDS011;3784;54.098;9.998;2022-08-21T07:27:13;6.60;;;2.30;;
7485;SDS011;3784;54.098;9.998;2022-08-21T07:29:41;3.83;;;2.10;;
7485;SDS011;3784;54.098;9.998;2022-08-21T07:32:07;3.87;;;2.07;;
7485;SDS011;3784;54.098;9.998;2022-08-21T07:34:34;4.40;;;2.20;;
7485;SDS011;3784;54.098;9.998;2022-08-21T07:37:00;4.90;;;1.90;;
7485;SDS011;3784;54.098;9.998;2022-08-21T07:39:35;3.33;;;2.00;;
7485;SDS011;3784;54.098;9.998;2022-08-21T07:42:01;5.13;;;2.07;;
7485;SDS011;3784;54.098;9.998;2022-08-21T07:44:33;5.27;;;2.20;;
7485;SDS011;3784;54.098;9.998;2022-08-21T07:47:00;2.77;;;1.90;;
7485;SDS011;3784;54.098;9.998;2022-08-21T07:49:27;4.30;;;2.00;;
7485;SDS011;3784;54.098;9.998;2022-08-21T07:51:54;2.67;;;1.80;;
7485;SDS011;3784;54.098;9.998;2022-08-21T07:54:21;3.90;;;2.00;;
7485;SDS011;3784;54.098;9.998;2022-08-21T07:56:58;5.03;;;2.00;;
7485;SDS011;3784;54.098;9.998;2022-08-21T07:59:25;4.37;;;1.80;;
7485;SDS011;3784;54.098;9.998;2022-08-21T08:01:53;4.73;;;2.30;;
7485;SDS011;3784;54.098;9.998;2022-08-21T08:04:19;3.53;;;1.87;;
7485;SDS011;3784;54.098;9.998;2022-08-21T08:06:51;5.93;;;2.73;;
7485;SDS011;3784;54.098;9.998;2022-08-21T08:09:18;5.63;;;2.33;;
7485;SDS011;3784;54.098;9.998;2022-08-21T08:11:44;3.73;;;1.93;;
7485;SDS011;3784;54.098;9.998;2022-08-21T08:14:11;5.27;;;2.23;;
7485;SDS011;3784;54.098;9.998;2022-08-21T08:16:38;5.90;;;2.37;;
7485;SDS011;3784;54.098;9.998;2022-08-21T08:19:04;5.43;;;2.57;;
7485;SDS011;3784;54.098;9.998;2022-08-21T08:21:31;4.13;;;2.00;;
7485;SDS011;3784;54.098;9.998;2022-08-21T08:24:00;5.50;;;2.20;;
7485;SDS011;3784;54.098;9.998;2022-08-21T08:26:44;4.07;;;2.00;;
7485;SDS011;3784;54.098;9.998;2022-08-21T08:29:18;5.00;;;2.20;;
7485;SDS011;3784;54.098;9.998;2022-08-21T08:31:45;3.33;;;1.97;;
7485;SDS011;3784;54.098;9.998;2022-08-21T08:34:12;4.63;;;2.17;;
7485;SDS011;3784;54.098;9.998;2022-08-21T08:36:50;4.77;;;2.27;;
7485;SDS011;3784;54.098;9.998;2022-08-21T08:39:17;5.47;;;2.40;;
7485;SDS011;3784;54.098;9.998;2022-08-21T08:41:56;4.47;;;2.10;;
7485;SDS011;3784;54.098;9.998;2022-08-21T08:44:49;4.53;;;2.27;;
7485;SDS011;3784;54.098;9.998;2022-08-21T08:47:22;6.60;;;2.23;;
7485;SDS011;3784;54.098;9.998;2022-08-21T08:49:55;5.07;;;2.23;;
7485;SDS011;3784;54.098;9.998;2022-08-21T08:52:31;4.83;;;2.20;;
7485;SDS011;3784;54.098;9.998;2022-08-21T08:55:02;5.07;;;2.10;;
7485;SDS011;3784;54.098;9.998;2022-08-21T08:57:29;5.20;;;2.60;;
7485;SDS011;3784;54.098;9.998;2022-08-21T08:59:58;9.00;;;2.43;;
7485;SDS011;3784;54.098;9.998;2022-08-21T09:02:27;4.43;;;2.00;;
7485;SDS011;3784;54.098;9.998;2022-08-21T09:04:55;5.37;;;2.37;;
7485;SDS011;3784;54.098;9.998;2022-08-21T09:10:09;4.27;;;2.10;;
7485;SDS011;3784;54.098;9.998;2022-08-21T09:15:53;6.77;;;2.40;;
7485;SDS011;3784;54.098;9.998;2022-08-21T09:21:16;7.07;;;2.60;;
7485;SDS011;3784;54.098;9.998;2022-08-21T09:26:27;7.23;;;2.60;;
7485;SDS011;3784;54.098;9.998;2022-08-21T09:28:58;5.17;;;2.47;;
7485;SDS011;3784;54.098;9.998;2022-08-21T09:31:35;8.47;;;3.20;;
7485;SDS011;3784;54.098;9.998;2022-08-21T09:34:06;5.90;;;2.27;;
7485;SDS011;3784;54.098;9.998;2022-08-21T09:39:11;5.07;;;2.10;;
7485;SDS011;3784;54.098;9.998;2022-08-21T09:41:39;6.03;;;2.57;;
7485;SDS011;3784;54.098;9.998;2022-08-21T09:44:06;6.73;;;2.80;;
7485;SDS011;3784;54.098;9.998;2022-08-21T09:46:34;6.57;;;2.70;;
7485;SDS011;3784;54.098;9.998;2022-08-21T09:49:03;5.57;;;2.63;;
7485;SDS011;3784;54.098;9.998;2022-08-21T09:51:33;9.73;;;2.70;;
7485;SDS011;3784;54.098;9.998;2022-08-21T09:56:32;6.50;;;2.83;;
7485;SDS011;3784;54.098;9.998;2022-08-21T09:59:19;8.20;;;2.80;;
7485;SDS011;3784;54.098;9.998;2022-08-21T10:05:14;6.30;;;2.33;;
7485;SDS011;3784;54.098;9.998;2022-08-21T10:07:46;8.07;;;2.67;;
7485;SDS011;3784;54.098;9.998;2022-08-21T10:10:29;6.77;;;2.90;;
7485;SDS011;3784;54.098;9.998;2022-08-21T10:13:09;6.77;;;2.67;;
7485;SDS011;3784;54.098;9.998;2022-08-21T10:18:54;5.43;;;2.67;;
7485;SDS011;3784;54.098;9.998;2022-08-21T10:29:38;6.03;;;2.60;;
7485;SDS011;3784;54.098;9.998;2022-08-21T10:41:15;5.57;;;2.43;;
7485;SDS011;3784;54.098;9.998;2022-08-21T10:43:55;5.07;;;2.20;;
7485;SDS011;3784;54.098;9.998;2022-08-21T10:46:53;6.43;;;2.20;;
7485;SDS011;3784;54.098;9.998;2022-08-21T10:55:36;4.90;;;2.20;;
7485;SDS011;3784;54.098;9.998;2022-08-21T10:57:57;4.20;;;2.20;;
7485;SDS011;3784;54.098;9.998;2022-08-21T11:03:33;4.20;;;2.17;;
7485;SDS011;3784;54.098;9.998;2022-08-21T11:06:07;5.70;;;2.07;;
7485;SDS011;3784;54.098;9.998;2022-08-21T11:13:55;2.30;;;1.90;;
7485;SDS011;3784;54.098;9.998;2022-08-21T11:19:21;3.30;;;1.80;;
7485;SDS011;3784;54.098;9.998;2022-08-21T11:21:58;3.60;;;1.80;;
7485;SDS011;3784;54.098;9.998;2022-08-21T11:27:26;3.57;;;1.70;;
7485;SDS011;3784;54.098;9.998;2022-08-21T11:30:15;2.47;;;1.87;;
7485;SDS011;3784;54.098;9.998;2022-08-21T11:38:00;4.17;;;2.03;;
7485;SDS011;3784;54.098;9.998;2022-08-21T11:54:29;3.30;;;1.70;;
7485;SDS011;3784;54.098;9.998;2022-08-21T11:57:05;2.77;;;1.80;;
7485;SDS011;3784;54.098;9.998;2022-08-21T11:59:43;1.77;;;1.40;;
7485;SDS011;3784;54.098;9.998;2022-08-21T12:02:14;2.07;;;1.53;;
7485;SDS011;3784;54.098;9.998;2022-08-21T12:04:46;2.47;;;1.50;;
7485;SDS011;3784;54.098;9.998;2022-08-21T12:07:17;2.40;;;1.57;;
7485;SDS011;3784;54.098;9.998;2022-08-21T12:09:56;2.20;;;1.40;;
7485;SDS011;3784;54.098;9.998;2022-08-21T12:12:31;3.30;;;1.60;;
7485;SDS011;3784;54.098;9.998;2022-08-21T12:17:52;2.60;;;1.70;;
7485;SDS011;3784;54.098;9.998;2022-08-21T12:20:25;2.20;;;1.57;;
7485;SDS011;3784;54.098;9.998;2022-08-21T12:25:47;1.80;;;1.40;;
7485;SDS011;3784;54.098;9.998;2022-08-21T12:28:26;2.53;;;1.50;;
7485;SDS011;3784;54.098;9.998;2022-08-21T12:30:54;2.00;;;1.40;;
7485;SDS011;3784;54.098;9.998;2022-08-21T12:33:28;3.20;;;1.47;;
7485;SDS011;3784;54.098;9.998;2022-08-21T12:36:09;3.97;;;1.50;;
7485;SDS011;3784;54.098;9.998;2022-08-21T12:41:16;2.87;;;1.17;;
7485;SDS011;3784;54.098;9.998;2022-08-21T12:43:51;2.07;;;1.30;;
7485;SDS011;3784;54.098;9.998;2022-08-21T12:46:45;2.63;;;1.50;;
7485;SDS011;3784;54.098;9.998;2022-08-21T12:51:54;3.33;;;1.57;;
7485;SDS011;3784;54.098;9.998;2022-08-21T12:54:24;2.87;;;1.43;;
7485;SDS011;3784;54.098;9.998;2022-08-21T12:57:00;1.80;;;1.40;;
7485;SDS011;3784;54.098;9.998;2022-08-21T12:59:28;2.33;;;1.50;;
7485;SDS011;3784;54.098;9.998;2022-08-21T13:01:55;1.57;;;1.47;;
7485;SDS011;3784;54.098;9.998;2022-08-21T13:04:32;1.80;;;1.30;;
7485;SDS011;3784;54.098;9.998;2022-08-21T13:07:05;3.13;;;2.13;;
7485;SDS011;3784;54.098;9.998;2022-08-21T13:09:33;2.43;;;1.60;;
7485;SDS011;3784;54.098;9.998;2022-08-21T13:12:00;1.73;;;1.20;;
7485;SDS011;3784;54.098;9.998;2022-08-21T13:14:37;2.73;;;1.30;;
7485;SDS011;3784;54.098;9.998;2022-08-21T13:17:12;2.23;;;1.33;;
7485;SDS011;3784;54.098;9.998;2022-08-21T13:19:54;2.77;;;1.50;;
7485;SDS011;3784;54.098;9.998;2022-08-21T13:22:29;1.97;;;1.40;;
7485;SDS011;3784;54.098;9.998;2022-08-21T13:25:01;1.90;;;1.50;;
7485;SDS011;3784;54.098;9.998;2022-08-21T13:27:32;2.77;;;1.30;;
7485;SDS011;3784;54.098;9.998;2022-08-21T13:30:20;3.53;;;1.70;;
7485;SDS011;3784;54.098;9.998;2022-08-21T13:32:49;3.63;;;1.30;;
7485;SDS011;3784;54.098;9.998;2022-08-21T13:35:19;2.13;;;1.40;;
7485;SDS011;3784;54.098;9.998;2022-08-21T13:37:50;2.40;;;1.80;;
7485;SDS011;3784;54.098;9.998;2022-08-21T13:40:19;3.00;;;1.43;;
7485;SDS011;3784;54.098;9.998;2022-08-21T13:42:51;2.63;;;1.30;;
7485;SDS011;3784;54.098;9.998;2022-08-21T13:45:30;1.80;;;1.40;;
7485;SDS011;3784;54.098;9.998;2022-08-21T13:47:59;3.63;;;1.63;;
7485;SDS011;3784;54.098;9.998;2022-08-21T13:50:32;4.03;;;1.50;;
7485;SDS011;3784;54.098;9.998;2022-08-21T13:53:03;2.70;;;1.60;;
7485;SDS011;3784;54.098;9.998;2022-08-21T13:55:42;2.63;;;1.50;;
7485;SDS011;3784;54.098;9.998;2022-08-21T13:58:10;3.83;;;1.40;;
7485;SDS011;3784;54.098;9.998;2022-08-21T14:00:46;1.70;;;1.40;;
7485;SDS011;3784;54.098;9.998;2022-08-21T14:03:17;2.47;;;1.50;;
7485;SDS011;3784;54.098;9.998;2022-08-21T14:05:59;1.97;;;1.20;;
7485;SDS011;3784;54.098;9.998;2022-08-21T14:10:58;3.10;;;1.50;;
7485;SDS011;3784;54.098;9.998;2022-08-21T14:16:13;2.37;;;1.60;;
7485;SDS011;3784;54.098;9.998;2022-08-21T14:18:46;3.13;;;1.60;;
7485;SDS011;3784;54.098;9.998;2022-08-21T14:21:33;3.30;;;1.73;;
7485;SDS011;3784;54.098;9.998;2022-08-21T14:24:09;2.07;;;1.63;;
7485;SDS011;3784;54.098;9.998;2022-08-21T14:29:18;2.97;;;1.37;;
7485;SDS011;3784;54.098;9.998;2022-08-21T14:31:52;2.60;;;1.33;;
7485;SDS011;3784;54.098;9.998;2022-08-21T14:34:25;3.67;;;1.67;;
7485;SDS011;3784;54.098;9.998;2022-08-21T14:36:58;2.70;;;1.50;;
7485;SDS011;3784;54.098;9.998;2022-08-21T14:39:24;4.80;;;1.50;;
7485;SDS011;3784;54.098;9.998;2022-08-21T14:41:51;2.77;;;1.40;;
7485;SDS011;3784;54.098;9.998;2022-08-21T14:44:20;2.00;;;1.40;;
7485;SDS011;3784;54.098;9.998;2022-08-21T14:46:46;4.13;;;1.60;;
7485;SDS011;3784;54.098;9.998;2022-08-21T14:49:23;3.47;;;1.50;;
7485;SDS011;3784;54.098;9.998;2022-08-21T14:51:53;2.57;;;1.30;;
7485;SDS011;3784;54.098;9.998;2022-08-21T14:54:25;2.70;;;1.30;;
7485;SDS011;3784;54.098;9.998;2022-08-21T14:57:07;2.03;;;1.30;;
7485;SDS011;3784;54.098;9.998;2022-08-21T14:59:35;2.30;;;1.33;;
7485;SDS011;3784;54.098;9.998;2022-08-21T15:02:02;2.87;;;1.40;;
7485;SDS011;3784;54.098;9.998;2022-08-21T15:04:32;3.47;;;1.53;;
7485;SDS011;3784;54.098;9.998;2022-08-21T15:07:00;2.90;;;1.50;;
7485;SDS011;3784;54.098;9.998;2022-08-21T15:09:26;5.17;;;1.83;;
7485;SDS011;3784;54.098;9.998;2022-08-21T15:11:56;2.17;;;1.50;;
7485;SDS011;3784;54.098;9.998;2022-08-21T15:14:27;3.73;;;1.80;;
7485;SDS011;3784;54.098;9.998;2022-08-21T15:16:55;2.17;;;1.43;;
7485;SDS011;3784;54.098;9.998;2022-08-21T15:19:22;2.73;;;1.70;;
7485;SDS011;3784;54.098;9.998;2022-08-21T15:21:49;4.70;;;1.50;;
7485;SDS011;3784;54.098;9.998;2022-08-21T15:24:16;3.17;;;1.63;;
7485;SDS011;3784;54.098;9.998;2022-08-21T15:26:42;3.97;;;1.77;;
7485;SDS011;3784;54.098;9.998;2022-08-21T15:29:10;2.93;;;1.47;;
7485;SDS011;3784;54.098;9.998;2022-08-21T15:31:37;2.33;;;1.30;;
7485;SDS011;3784;54.098;9.998;2022-08-21T15:34:16;3.33;;;1.60;;
7485;SDS011;3784;54.098;9.998;2022-08-21T15:36:43;4.63;;;1.87;;
7485;SDS011;3784;54.098;9.998;2022-08-21T15:39:10;3.27;;;1.57;;
7485;SDS011;3784;54.098;9.998;2022-08-21T15:41:36;4.60;;;1.97;;
7485;SDS011;3784;54.098;9.998;2022-08-21T15:44:03;3.43;;;1.80;;
7485;SDS011;3784;54.098;9.998;2022-08-21T15:46:29;3.57;;;1.80;;
7485;SDS011;3784;54.098;9.998;2022-08-21T15:48:56;3.23;;;1.50;;
7485;SDS011;3784;54.098;9.998;2022-08-21T15:51:25;3.37;;;1.63;;
7485;SDS011;3784;54.098;9.998;2022-08-21T15:53:51;3.83;;;1.60;;
7485;SDS011;3784;54.098;9.998;2022-08-21T15:56:22;3.40;;;1.80;;
7485;SDS011;3784;54.098;9.998;2022-08-21T15:58:50;3.90;;;1.87;;
7485;SDS011;3784;54.098;9.998;2022-08-21T16:01:19;5.13;;;1.80;;
7485;SDS011;3784;54.098;9.998;2022-08-21T16:03:48;4.27;;;1.80;;
7485;SDS011;3784;54.098;9.998;2022-08-21T16:06:15;4.47;;;1.80;;
7485;SDS011;3784;54.098;9.998;2022-08-21T16:08:42;4.00;;;1.67;;
7485;SDS011;3784;54.098;9.998;2022-08-21T16:11:09;5.43;;;1.93;;
7485;SDS011;3784;54.098;9.998;2022-08-21T16:13:38;3.97;;;1.67;;
7485;SDS011;3784;54.098;9.998;2022-08-21T16:16:12;3.80;;;1.90;;
7485;SDS011;3784;54.098;9.998;2022-08-21T16:18:42;5.50;;;2.30;;
7485;SDS011;3784;54.098;9.998;2022-08-21T16:21:08;6.13;;;2.00;;
7485;SDS011;3784;54.098;9.998;2022-08-21T16:23:35;6.63;;;2.27;;
7485;SDS011;3784;54.098;9.998;2022-08-21T16:26:02;5.13;;;2.20;;
7485;SDS011;3784;54.098;9.998;2022-08-21T16:28:29;7.90;;;2.63;;
7485;SDS011;3784;54.098;9.998;2022-08-21T16:30:56;4.87;;;2.10;;
7485;SDS011;3784;54.098;9.998;2022-08-21T16:36:02;6.43;;;2.13;;
7485;SDS011;3784;54.098;9.998;2022-08-21T16:38:29;22.20;;;3.27;;
7485;SDS011;3784;54.098;9.998;2022-08-21T16:40:58;4.17;;;2.07;;
7485;SDS011;3784;54.098;9.998;2022-08-21T16:43:27;5.60;;;2.03;;
7485;SDS011;3784;54.098;9.998;2022-08-21T16:45:56;5.40;;;2.70;;
7485;SDS011;3784;54.098;9.998;2022-08-21T16:48:23;5.20;;;2.20;;
7485;SDS011;3784;54.098;9.998;2022-08-21T16:50:50;6.33;;;2.80;;
7485;SDS011;3784;54.098;9.998;2022-08-21T16:53:16;6.03;;;2.30;;
7485;SDS011;3784;54.098;9.998;2022-08-21T16:55:44;8.73;;;2.63;;
7485;SDS011;3784;54.098;9.998;2022-08-21T16:58:15;5.60;;;2.40;;
7485;SDS011;3784;54.098;9.998;2022-08-21T17:00:44;5.17;;;2.07;;
7485;SDS011;3784;54.098;9.998;2022-08-21T17:03:13;6.00;;;2.57;;
7485;SDS011;3784;54.098;9.998;2022-08-21T17:05:42;5.40;;;2.40;;
7485;SDS011;3784;54.098;9.998;2022-08-21T17:08:09;5.67;;;2.33;;
7485;SDS011;3784;54.098;9.998;2022-08-21T17:10:35;5.57;;;2.47;;
7485;SDS011;3784;54.098;9.998;2022-08-21T17:13:02;7.20;;;2.37;;
7485;SDS011;3784;54.098;9.998;2022-08-21T17:15:35;6.90;;;2.67;;